createdAt,value
2018-07-22T00:00:52.424Z,23.17
2018-07-22T00:05:55.565Z,22.83
2018-07-22T00:10:58.688Z,22.87
2018-07-22T00:16:01.855Z,22.93
2018-07-22T00:21:04.933Z,23.47
2018-07-22T00:26:08.054Z,23.30
2018-07-22T00:31:11.149Z,24.13
2018-07-22T00:36:14.232Z,25.57
2018-07-22T00:41:17.381Z,25.97
2018-07-22T00:46:20.538Z,25.10
2018-07-22T00:51:32.730Z,27.30
2018-07-22T00:56:36.194Z,26.27
2018-07-22T01:01:41.723Z,26.10
2018-07-22T01:06:45.057Z,26.57
2018-07-22T01:11:49.453Z,25.30
2018-07-22T01:16:52.865Z,26.97
2018-07-22T01:21:56.870Z,26.33
2018-07-22T01:27:02.706Z,26.83
2018-07-22T01:32:05.823Z,26.87
2018-07-22T01:37:08.900Z,26.43
2018-07-22T01:42:12.020Z,28.30
2018-07-22T01:47:15.127Z,26.37
2018-07-22T01:52:18.224Z,27.20
2018-07-22T01:57:21.282Z,27.33
2018-07-22T02:02:25.417Z,27.03
2018-07-22T02:07:28.665Z,27.83
2018-07-22T02:12:33.597Z,27.13
2018-07-22T02:17:36.641Z,26.10
2018-07-22T02:22:39.736Z,26.27
2018-07-22T02:27:42.848Z,24.80
2018-07-22T02:32:45.970Z,25.97
2018-07-22T02:37:50.149Z,27.13
2018-07-22T02:42:57.181Z,25.07
2018-07-22T02:48:00.316Z,24.47
2018-07-22T02:53:07.594Z,25.50
2018-07-22T02:58:10.708Z,26.63
2018-07-22T03:03:13.756Z,25.87
2018-07-22T03:08:17.905Z,26.57
2018-07-22T03:13:21.897Z,27.60
2018-07-22T03:18:25.537Z,27.20
2018-07-22T03:23:28.944Z,26.83
2018-07-22T03:28:32.045Z,27.70
2018-07-22T03:33:35.124Z,25.50
2018-07-22T03:38:39.205Z,25.50
2018-07-22T03:43:44.426Z,25.60
2018-07-22T03:48:47.477Z,26.33
2018-07-22T03:53:50.680Z,25.93
2018-07-22T03:58:53.741Z,26.87
2018-07-22T04:03:56.996Z,27.07
2018-07-22T04:09:00.124Z,27.03
2018-07-22T04:14:03.184Z,24.70
2018-07-22T04:19:06.240Z,25.87
2018-07-22T04:24:09.333Z,24.80
2018-07-22T04:29:12.557Z,24.30
2018-07-22T04:34:15.701Z,29.27
2018-07-22T04:39:18.971Z,29.77
2018-07-22T04:44:24.201Z,24.80
2018-07-22T04:49:27.269Z,30.10
2018-07-22T04:54:30.484Z,32.97
2018-07-22T04:59:42.411Z,33.17
2018-07-22T05:04:47.925Z,36.00
2018-07-22T05:09:51.600Z,38.97
2018-07-22T05:14:54.812Z,38.43
2018-07-22T05:19:57.969Z,39.90
2018-07-22T05:25:01.126Z,41.20
2018-07-22T05:30:04.229Z,42.40
2018-07-22T05:35:07.316Z,43.03
2018-07-22T05:40:11.611Z,42.57
2018-07-22T05:45:14.925Z,40.67
2018-07-22T05:50:18.017Z,41.27
2018-07-22T05:55:21.236Z,38.93
2018-07-22T06:00:25.881Z,37.73
2018-07-22T06:05:28.957Z,34.97
2018-07-22T06:10:32.076Z,35.10
2018-07-22T06:15:36.564Z,34.63
2018-07-22T06:20:41.601Z,33.73
2018-07-22T06:25:44.665Z,33.63
2018-07-22T06:30:49.345Z,32.70
2018-07-22T06:35:52.590Z,32.07
2018-07-22T06:40:55.617Z,33.17
2018-07-22T06:45:58.685Z,32.67
2018-07-22T06:51:02.182Z,31.80
2018-07-22T06:56:05.296Z,32.97
2018-07-22T07:01:09.504Z,30.97
2018-07-22T07:06:12.609Z,29.00
2018-07-22T07:11:18.141Z,29.50
2018-07-22T07:16:21.269Z,29.47
2018-07-22T07:21:24.368Z,28.73
2018-07-22T07:26:27.449Z,27.87
2018-07-22T07:31:30.488Z,26.13
2018-07-22T07:36:34.163Z,27.13
2018-07-22T07:41:37.629Z,27.07
2018-07-22T07:46:40.716Z,27.70
2018-07-22T07:51:43.990Z,28.53
2018-07-22T07:56:47.122Z,26.37
2018-07-22T08:01:50.328Z,28.10
2018-07-22T08:06:53.509Z,26.87
2018-07-22T08:11:56.552Z,26.27
2018-07-22T08:16:59.668Z,23.77
2018-07-22T08:22:02.855Z,25.90
2018-07-22T08:27:05.909Z,27.67
2018-07-22T08:32:10.016Z,27.03
2018-07-22T08:37:14.674Z,25.83
2018-07-22T08:42:21.649Z,24.80
2018-07-22T08:47:29.665Z,25.97
2018-07-22T09:03:35.555Z,25.23
2018-07-22T09:08:38.881Z,27.60
2018-07-22T09:13:42.793Z,23.97
2018-07-22T09:18:46.066Z,26.03
2018-07-22T09:23:50.113Z,26.70
2018-07-22T09:28:54.294Z,24.50
2018-07-22T09:34:12.010Z,26.00
2018-07-22T09:39:27.445Z,23.70
2018-07-22T09:44:32.402Z,26.43
2018-07-22T09:49:37.599Z,24.20
2018-07-22T09:54:43.665Z,24.30
2018-07-22T09:59:49.701Z,24.53
2018-07-22T10:04:53.092Z,21.33
2018-07-22T10:09:57.170Z,20.23
2018-07-22T10:15:04.688Z,21.30
2018-07-22T10:20:14.877Z,22.57
2018-07-22T10:25:18.164Z,21.20
2018-07-22T10:30:24.595Z,20.60
2018-07-22T10:35:29.387Z,21.27
2018-07-22T10:40:34.500Z,20.23
2018-07-22T10:45:40.758Z,19.03
2018-07-22T10:50:48.669Z,22.10
2018-07-22T10:55:53.084Z,17.40
2018-07-22T11:00:56.836Z,18.30
2018-07-22T11:06:03.202Z,16.73
2018-07-22T11:11:11.015Z,16.57
2018-07-22T11:16:14.625Z,15.70
2018-07-22T11:21:23.940Z,16.53
2018-07-22T11:26:27.895Z,13.23
2018-07-22T11:31:31.249Z,12.20
2018-07-22T11:36:34.432Z,15.57
2018-07-22T11:41:45.439Z,13.70
2018-07-22T11:46:49.342Z,11.43
2018-07-22T11:51:52.688Z,11.80
2018-07-22T11:56:57.365Z,10.70
2018-07-22T12:02:00.720Z,10.30
2018-07-22T12:07:14.595Z,10.10
2018-07-22T12:12:24.252Z,10.10
2018-07-22T12:17:31.535Z,10.20
2018-07-22T12:22:40.816Z,10.80
2018-07-22T12:27:44.531Z,10.53
2018-07-22T12:32:51.477Z,8.23
2018-07-22T12:38:19.262Z,9.67
2018-07-22T12:43:28.031Z,8.43
2018-07-22T12:53:53.093Z,7.57
2018-07-22T12:58:57.418Z,7.50
2018-07-22T13:04:28.619Z,7.07
2018-07-22T13:09:40.633Z,7.20
2018-07-22T13:14:45.474Z,6.83
2018-07-22T13:19:52.539Z,6.63
2018-07-22T13:24:59.789Z,6.57
2018-07-22T13:30:04.090Z,6.87
2018-07-22T13:35:12.550Z,6.37
2018-07-22T13:40:16.767Z,6.30
2018-07-22T13:45:23.748Z,6.70
2018-07-22T13:50:30.001Z,5.63
2018-07-22T13:55:44.529Z,6.47
2018-07-22T14:00:49.997Z,6.20
2018-07-22T14:11:03.398Z,6.40
2018-07-22T14:16:08.321Z,6.23
2018-07-22T14:21:13.621Z,6.63
2018-07-22T14:26:17.318Z,5.93
2018-07-22T14:31:37.442Z,6.40
2018-07-22T14:36:40.649Z,7.03
2018-07-22T14:41:44.408Z,7.27
2018-07-22T14:46:52.446Z,6.20
2018-07-22T14:51:55.721Z,5.40
2018-07-22T14:56:59.059Z,5.80
2018-07-22T15:02:05.145Z,5.60
2018-07-22T15:07:13.250Z,5.43
2018-07-22T15:12:16.417Z,5.50
2018-07-22T15:17:23.212Z,7.70
2018-07-22T15:22:29.647Z,13.27
2018-07-22T15:27:35.923Z,7.80
2018-07-22T15:32:39.116Z,5.40
2018-07-22T15:37:45.964Z,5.73
2018-07-22T15:42:52.204Z,5.60
2018-07-22T15:48:00.902Z,5.80
2018-07-22T19:19:37.080Z,4.97
2018-07-22T19:24:40.256Z,4.93
2018-07-22T19:29:43.308Z,5.33
2018-07-22T19:34:46.374Z,5.00
2018-07-22T19:39:49.477Z,5.03
2018-07-22T19:44:52.568Z,5.40
2018-07-22T19:49:55.898Z,6.40
2018-07-22T19:54:58.948Z,5.60
2018-07-22T20:00:02.009Z,5.33
2018-07-22T20:05:05.302Z,5.63
2018-07-22T20:10:08.441Z,5.40
2018-07-22T20:15:11.492Z,5.60
2018-07-22T20:20:15.072Z,6.07
2018-07-22T20:25:18.164Z,5.43
2018-07-22T20:30:21.284Z,5.80
2018-07-22T20:35:24.376Z,6.10
2018-07-22T20:40:27.520Z,6.03
2018-07-22T20:45:30.576Z,6.00
2018-07-22T20:50:33.782Z,5.97
2018-07-22T20:55:36.854Z,5.63
2018-07-22T21:00:39.928Z,6.53
2018-07-22T21:05:43.095Z,6.73
2018-07-22T21:10:46.265Z,7.08
2018-07-22T21:15:49.424Z,6.90
2018-07-22T21:20:52.634Z,6.20
2018-07-22T21:25:55.654Z,6.67
2018-07-22T21:30:58.890Z,6.37
2018-07-22T21:36:01.989Z,7.73
2018-07-22T21:41:05.158Z,7.13
2018-07-22T21:46:08.208Z,7.87
2018-07-22T21:51:15.137Z,8.10
2018-07-22T21:56:22.363Z,8.30
2018-07-22T22:01:25.488Z,7.73
2018-07-22T22:06:29.833Z,8.13
2018-07-22T22:11:32.924Z,8.30
2018-07-22T22:16:37.573Z,8.37
2018-07-22T22:21:40.654Z,8.30
2018-07-22T22:26:48.515Z,8.20
2018-07-22T22:31:54.849Z,8.43
2018-07-22T22:42:17.916Z,8.27
2018-07-22T22:47:20.985Z,8.23
2018-07-22T22:52:30.877Z,8.67
2018-07-22T22:57:35.823Z,10.17
2018-07-22T23:02:41.024Z,10.00
2018-07-22T23:07:44.997Z,10.20
2018-07-22T23:12:49.983Z,10.00
2018-07-22T23:17:55.105Z,9.53
2018-07-22T23:22:58.209Z,10.63
2018-07-22T23:28:02.335Z,11.47
2018-07-22T23:33:08.253Z,10.57
2018-07-22T23:38:14.519Z,11.17
2018-07-22T23:43:18.903Z,11.13
2018-07-22T23:48:28.933Z,10.80
2018-07-22T23:53:34.709Z,11.47
2018-07-22T23:58:41.572Z,10.93
